sensor_id;sensor_type;location;lat;lon;timestamp;P1;durP1;ratioP1;P2;durP2;ratioP2
23376;SDS011;14353;46.070;13.222;2024-02-16T00:00:23;12.77;;;11.30;;
23376;SDS011;14353;46.070;13.222;2024-02-16T00:02:50;14.05;;;11.57;;
23376;SDS011;14353;46.070;13.222;2024-02-16T00:05:15;13.07;;;11.68;;
23376;SDS011;14353;46.070;13.222;2024-02-16T00:07:41;13.63;;;11.07;;
23376;SDS011;14353;46.070;13.222;2024-02-16T00:10:08;13.75;;;10.82;;
23376;SDS011;14353;46.070;13.222;2024-02-16T00:12:34;12.80;;;11.45;;
23376;SDS011;14353;46.070;13.222;2024-02-16T00:15:00;13.02;;;11.63;;
23376;SDS011;14353;46.070;13.222;2024-02-16T00:17:27;13.02;;;10.88;;
23376;SDS011;14353;46.070;13.222;2024-02-16T00:19:53;13.05;;;11.40;;
23376;SDS011;14353;46.070;13.222;2024-02-16T00:22:19;11.98;;;10.77;;
23376;SDS011;14353;46.070;13.222;2024-02-16T00:24:45;12.32;;;10.98;;
23376;SDS011;14353;46.070;13.222;2024-02-16T00:27:11;13.00;;;11.30;;
23376;SDS011;14353;46.070;13.222;2024-02-16T00:29:37;12.05;;;10.15;;
23376;SDS011;14353;46.070;13.222;2024-02-16T00:32:05;12.27;;;10.45;;
23376;SDS011;14353;46.070;13.222;2024-02-16T00:34:31;11.80;;;10.55;;
23376;SDS011;14353;46.070;13.222;2024-02-16T00:36:57;11.38;;;10.18;;
23376;SDS011;14353;46.070;13.222;2024-02-16T00:39:23;12.30;;;10.57;;
23376;SDS011;14353;46.070;13.222;2024-02-16T00:41:50;12.50;;;10.95;;
23376;SDS011;14353;46.070;13.222;2024-02-16T00:44:15;12.38;;;10.60;;
23376;SDS011;14353;46.070;13.222;2024-02-16T00:46:42;12.30;;;10.32;;
23376;SDS011;14353;46.070;13.222;2024-02-16T00:49:11;12.27;;;10.48;;
23376;SDS011;14353;46.070;13.222;2024-02-16T00:51:37;12.00;;;10.35;;
23376;SDS011;14353;46.070;13.222;2024-02-16T00:54:03;12.90;;;10.63;;
23376;SDS011;14353;46.070;13.222;2024-02-16T00:56:29;12.07;;;10.75;;
23376;SDS011;14353;46.070;13.222;2024-02-16T00:58:55;14.80;;;10.57;;
23376;SDS011;14353;46.070;13.222;2024-02-16T01:01:21;11.65;;;10.40;;
23376;SDS011;14353;46.070;13.222;2024-02-16T01:03:48;12.20;;;10.40;;
23376;SDS011;14353;46.070;13.222;2024-02-16T01:06:14;14.20;;;10.45;;
23376;SDS011;14353;46.070;13.222;2024-02-16T01:08:40;12.48;;;10.50;;
23376;SDS011;14353;46.070;13.222;2024-02-16T01:11:06;12.55;;;10.63;;
23376;SDS011;14353;46.070;13.222;2024-02-16T01:13:32;12.13;;;10.57;;
23376;SDS011;14353;46.070;13.222;2024-02-16T01:15:58;12.75;;;10.65;;
23376;SDS011;14353;46.070;13.222;2024-02-16T01:18:28;13.20;;;11.07;;
23376;SDS011;14353;46.070;13.222;2024-02-16T01:20:55;12.73;;;10.88;;
23376;SDS011;14353;46.070;13.222;2024-02-16T01:23:21;12.52;;;11.07;;
23376;SDS011;14353;46.070;13.222;2024-02-16T01:25:47;12.75;;;10.88;;
23376;SDS011;14353;46.070;13.222;2024-02-16T01:28:13;13.00;;;10.88;;
23376;SDS011;14353;46.070;13.222;2024-02-16T01:30:39;13.45;;;11.38;;
23376;SDS011;14353;46.070;13.222;2024-02-16T01:33:06;15.73;;;11.40;;
23376;SDS011;14353;46.070;13.222;2024-02-16T01:35:34;13.52;;;11.32;;
23376;SDS011;14353;46.070;13.222;2024-02-16T01:38:00;11.90;;;10.40;;
23376;SDS011;14353;46.070;13.222;2024-02-16T01:40:26;12.52;;;11.18;;
23376;SDS011;14353;46.070;13.222;2024-02-16T01:42:53;14.18;;;11.48;;
23376;SDS011;14353;46.070;13.222;2024-02-16T01:45:19;13.73;;;10.98;;
23376;SDS011;14353;46.070;13.222;2024-02-16T01:47:45;13.70;;;10.90;;
23376;SDS011;14353;46.070;13.222;2024-02-16T01:50:14;13.00;;;11.07;;
23376;SDS011;14353;46.070;13.222;2024-02-16T01:52:42;14.48;;;11.40;;
23376;SDS011;14353;46.070;13.222;2024-02-16T01:55:09;14.43;;;11.75;;
23376;SDS011;14353;46.070;13.222;2024-02-16T01:57:37;14.65;;;11.57;;
23376;SDS011;14353;46.070;13.222;2024-02-16T02:00:04;14.60;;;10.75;;
23376;SDS011;14353;46.070;13.222;2024-02-16T02:02:33;13.75;;;11.65;;
23376;SDS011;14353;46.070;13.222;2024-02-16T02:05:02;14.25;;;11.75;;
23376;SDS011;14353;46.070;13.222;2024-02-16T02:07:29;12.57;;;11.13;;
23376;SDS011;14353;46.070;13.222;2024-02-16T02:09:55;13.43;;;11.13;;
23376;SDS011;14353;46.070;13.222;2024-02-16T02:12:21;15.75;;;11.00;;
23376;SDS011;14353;46.070;13.222;2024-02-16T02:14:48;12.52;;;11.10;;
23376;SDS011;14353;46.070;13.222;2024-02-16T02:17:14;12.45;;;11.07;;
23376;SDS011;14353;46.070;13.222;2024-02-16T02:19:40;13.35;;;10.98;;
23376;SDS011;14353;46.070;13.222;2024-02-16T02:22:12;12.63;;;10.93;;
23376;SDS011;14353;46.070;13.222;2024-02-16T02:24:42;14.00;;;11.40;;
23376;SDS011;14353;46.070;13.222;2024-02-16T02:27:09;13.20;;;10.68;;
23376;SDS011;14353;46.070;13.222;2024-02-16T02:29:35;12.07;;;10.77;;
23376;SDS011;14353;46.070;13.222;2024-02-16T02:32:01;12.88;;;10.30;;
23376;SDS011;14353;46.070;13.222;2024-02-16T02:34:26;11.77;;;10.43;;
23376;SDS011;14353;46.070;13.222;2024-02-16T02:36:52;11.88;;;10.07;;
23376;SDS011;14353;46.070;13.222;2024-02-16T02:39:18;12.88;;;10.00;;
23376;SDS011;14353;46.070;13.222;2024-02-16T02:41:44;12.90;;;10.05;;
23376;SDS011;14353;46.070;13.222;2024-02-16T02:44:10;13.75;;;10.52;;
23376;SDS011;14353;46.070;13.222;2024-02-16T02:46:36;11.88;;;9.80;;
23376;SDS011;14353;46.070;13.222;2024-02-16T02:49:02;11.50;;;10.10;;
23376;SDS011;14353;46.070;13.222;2024-02-16T02:51:28;11.95;;;9.75;;
23376;SDS011;14353;46.070;13.222;2024-02-16T02:53:54;11.57;;;9.35;;
23376;SDS011;14353;46.070;13.222;2024-02-16T02:56:20;12.50;;;10.18;;
23376;SDS011;14353;46.070;13.222;2024-02-16T02:58:46;12.18;;;10.30;;
23376;SDS011;14353;46.070;13.222;2024-02-16T03:01:12;10.75;;;9.38;;
23376;SDS011;14353;46.070;13.222;2024-02-16T03:03:39;11.55;;;9.38;;
23376;SDS011;14353;46.070;13.222;2024-02-16T03:06:06;11.02;;;9.48;;
23376;SDS011;14353;46.070;13.222;2024-02-16T03:08:32;11.45;;;9.02;;
23376;SDS011;14353;46.070;13.222;2024-02-16T03:10:58;13.35;;;9.88;;
23376;SDS011;14353;46.070;13.222;2024-02-16T03:13:27;11.32;;;9.15;;
23376;SDS011;14353;46.070;13.222;2024-02-16T03:15:53;12.05;;;9.25;;
23376;SDS011;14353;46.070;13.222;2024-02-16T03:18:19;11.82;;;8.98;;
23376;SDS011;14353;46.070;13.222;2024-02-16T03:20:45;10.27;;;8.73;;
23376;SDS011;14353;46.070;13.222;2024-02-16T03:23:13;10.73;;;9.05;;
23376;SDS011;14353;46.070;13.222;2024-02-16T03:25:39;9.98;;;8.30;;
23376;SDS011;14353;46.070;13.222;2024-02-16T03:28:05;10.48;;;8.30;;
23376;SDS011;14353;46.070;13.222;2024-02-16T03:30:34;9.65;;;8.10;;
23376;SDS011;14353;46.070;13.222;2024-02-16T03:33:00;10.15;;;8.23;;
23376;SDS011;14353;46.070;13.222;2024-02-16T03:35:25;10.45;;;8.65;;
23376;SDS011;14353;46.070;13.222;2024-02-16T03:37:52;10.85;;;8.65;;
23376;SDS011;14353;46.070;13.222;2024-02-16T03:40:18;9.50;;;8.50;;
23376;SDS011;14353;46.070;13.222;2024-02-16T03:42:44;10.45;;;8.10;;
23376;SDS011;14353;46.070;13.222;2024-02-16T03:45:09;9.85;;;7.68;;
23376;SDS011;14353;46.070;13.222;2024-02-16T03:47:36;10.07;;;7.72;;
23376;SDS011;14353;46.070;13.222;2024-02-16T03:50:02;11.27;;;8.77;;
23376;SDS011;14353;46.070;13.222;2024-02-16T03:52:28;11.20;;;8.25;;
23376;SDS011;14353;46.070;13.222;2024-02-16T03:54:54;9.43;;;7.75;;
23376;SDS011;14353;46.070;13.222;2024-02-16T03:57:19;9.48;;;7.78;;
23376;SDS011;14353;46.070;13.222;2024-02-16T03:59:45;10.68;;;8.07;;
23376;SDS011;14353;46.070;13.222;2024-02-16T04:02:11;11.05;;;8.55;;
23376;SDS011;14353;46.070;13.222;2024-02-16T04:04:40;8.70;;;7.75;;
23376;SDS011;14353;46.070;13.222;2024-02-16T04:07:06;8.98;;;7.65;;
23376;SDS011;14353;46.070;13.222;2024-02-16T04:09:33;9.48;;;7.50;;
23376;SDS011;14353;46.070;13.222;2024-02-16T04:11:59;8.90;;;7.75;;
23376;SDS011;14353;46.070;13.222;2024-02-16T04:14:26;8.25;;;7.45;;
23376;SDS011;14353;46.070;13.222;2024-02-16T04:16:52;8.10;;;7.30;;
23376;SDS011;14353;46.070;13.222;2024-02-16T04:19:17;8.57;;;7.60;;
23376;SDS011;14353;46.070;13.222;2024-02-16T04:21:43;9.52;;;7.50;;
23376;SDS011;14353;46.070;13.222;2024-02-16T04:24:09;9.38;;;7.60;;
23376;SDS011;14353;46.070;13.222;2024-02-16T04:26:35;8.40;;;7.50;;
23376;SDS011;14353;46.070;13.222;2024-02-16T04:29:01;8.50;;;7.40;;
23376;SDS011;14353;46.070;13.222;2024-02-16T04:31:29;8.40;;;7.50;;
23376;SDS011;14353;46.070;13.222;2024-02-16T04:33:55;9.13;;;7.65;;
23376;SDS011;14353;46.070;13.222;2024-02-16T04:36:20;8.35;;;7.40;;
23376;SDS011;14353;46.070;13.222;2024-02-16T04:38:46;7.93;;;6.75;;
23376;SDS011;14353;46.070;13.222;2024-02-16T04:41:12;8.63;;;7.40;;
23376;SDS011;14353;46.070;13.222;2024-02-16T04:43:38;8.90;;;7.30;;
23376;SDS011;14353;46.070;13.222;2024-02-16T04:46:04;7.72;;;6.93;;
23376;SDS011;14353;46.070;13.222;2024-02-16T04:48:30;8.65;;;6.80;;
23376;SDS011;14353;46.070;13.222;2024-02-16T04:50:57;8.73;;;7.32;;
23376;SDS011;14353;46.070;13.222;2024-02-16T04:53:23;8.60;;;6.68;;
23376;SDS011;14353;46.070;13.222;2024-02-16T04:55:48;9.38;;;6.28;;
23376;SDS011;14353;46.070;13.222;2024-02-16T04:58:14;7.97;;;6.95;;
23376;SDS011;14353;46.070;13.222;2024-02-16T05:00:40;9.20;;;7.05;;
23376;SDS011;14353;46.070;13.222;2024-02-16T05:03:06;8.43;;;6.60;;
23376;SDS011;14353;46.070;13.222;2024-02-16T05:05:31;8.05;;;6.75;;
23376;SDS011;14353;46.070;13.222;2024-02-16T05:07:57;7.53;;;6.60;;
23376;SDS011;14353;46.070;13.222;2024-02-16T05:10:23;7.47;;;6.35;;
23376;SDS011;14353;46.070;13.222;2024-02-16T05:12:49;8.32;;;6.55;;
23376;SDS011;14353;46.070;13.222;2024-02-16T05:15:15;7.90;;;6.47;;
23376;SDS011;14353;46.070;13.222;2024-02-16T05:17:42;7.45;;;6.63;;
23376;SDS011;14353;46.070;13.222;2024-02-16T05:20:11;9.40;;;6.50;;
23376;SDS011;14353;46.070;13.222;2024-02-16T05:22:49;8.43;;;6.57;;
23376;SDS011;14353;46.070;13.222;2024-02-16T05:25:18;7.97;;;5.63;;
23376;SDS011;14353;46.070;13.222;2024-02-16T05:27:44;6.85;;;5.88;;
23376;SDS011;14353;46.070;13.222;2024-02-16T05:30:11;9.93;;;6.32;;
23376;SDS011;14353;46.070;13.222;2024-02-16T05:32:39;7.78;;;5.93;;
23376;SDS011;14353;46.070;13.222;2024-02-16T05:35:06;6.68;;;5.90;;
23376;SDS011;14353;46.070;13.222;2024-02-16T05:37:46;6.97;;;6.13;;
23376;SDS011;14353;46.070;13.222;2024-02-16T05:40:14;8.32;;;5.85;;
23376;SDS011;14353;46.070;13.222;2024-02-16T05:42:52;6.32;;;5.70;;
23376;SDS011;14353;46.070;13.222;2024-02-16T05:45:18;7.07;;;5.80;;
23376;SDS011;14353;46.070;13.222;2024-02-16T05:47:46;6.47;;;5.72;;
23376;SDS011;14353;46.070;13.222;2024-02-16T05:50:12;7.00;;;5.70;;
23376;SDS011;14353;46.070;13.222;2024-02-16T05:52:39;5.90;;;5.30;;
23376;SDS011;14353;46.070;13.222;2024-02-16T05:55:05;7.32;;;5.97;;
23376;SDS011;14353;46.070;13.222;2024-02-16T05:57:35;6.90;;;5.63;;
23376;SDS011;14353;46.070;13.222;2024-02-16T06:00:02;6.68;;;5.68;;
23376;SDS011;14353;46.070;13.222;2024-02-16T06:02:32;6.10;;;5.40;;
23376;SDS011;14353;46.070;13.222;2024-02-16T06:05:01;7.43;;;5.78;;
23376;SDS011;14353;46.070;13.222;2024-02-16T06:07:28;7.40;;;5.47;;
23376;SDS011;14353;46.070;13.222;2024-02-16T06:09:57;6.32;;;5.35;;
23376;SDS011;14353;46.070;13.222;2024-02-16T06:12:23;6.32;;;5.45;;
23376;SDS011;14353;46.070;13.222;2024-02-16T06:14:49;7.13;;;5.97;;
23376;SDS011;14353;46.070;13.222;2024-02-16T06:17:15;7.80;;;5.75;;
23376;SDS011;14353;46.070;13.222;2024-02-16T06:19:41;6.85;;;5.40;;
23376;SDS011;14353;46.070;13.222;2024-02-16T06:22:07;6.53;;;5.60;;
23376;SDS011;14353;46.070;13.222;2024-02-16T06:24:34;7.20;;;5.60;;
23376;SDS011;14353;46.070;13.222;2024-02-16T06:27:00;7.93;;;5.72;;
23376;SDS011;14353;46.070;13.222;2024-02-16T06:29:26;6.75;;;5.45;;
23376;SDS011;14353;46.070;13.222;2024-02-16T06:31:51;6.07;;;5.30;;
23376;SDS011;14353;46.070;13.222;2024-02-16T06:34:18;5.35;;;4.82;;
23376;SDS011;14353;46.070;13.222;2024-02-16T06:36:44;6.30;;;5.32;;
23376;SDS011;14353;46.070;13.222;2024-02-16T06:39:10;7.53;;;5.50;;
23376;SDS011;14353;46.070;13.222;2024-02-16T06:41:36;6.05;;;4.93;;
23376;SDS011;14353;46.070;13.222;2024-02-16T06:44:02;6.32;;;4.63;;
23376;SDS011;14353;46.070;13.222;2024-02-16T06:46:29;5.68;;;5.07;;
23376;SDS011;14353;46.070;13.222;2024-02-16T06:48:55;6.00;;;5.20;;
23376;SDS011;14353;46.070;13.222;2024-02-16T06:51:22;6.10;;;4.60;;
23376;SDS011;14353;46.070;13.222;2024-02-16T06:53:49;5.55;;;4.95;;
23376;SDS011;14353;46.070;13.222;2024-02-16T06:56:15;7.05;;;4.85;;
23376;SDS011;14353;46.070;13.222;2024-02-16T06:58:40;5.30;;;4.68;;
23376;SDS011;14353;46.070;13.222;2024-02-16T07:01:06;6.80;;;4.90;;
23376;SDS011;14353;46.070;13.222;2024-02-16T07:03:33;5.97;;;4.70;;
23376;SDS011;14353;46.070;13.222;2024-02-16T07:06:02;6.53;;;4.95;;
23376;SDS011;14353;46.070;13.222;2024-02-16T07:08:28;6.13;;;4.85;;
23376;SDS011;14353;46.070;13.222;2024-02-16T07:10:54;5.97;;;4.78;;
23376;SDS011;14353;46.070;13.222;2024-02-16T07:13:22;5.10;;;4.35;;
23376;SDS011;14353;46.070;13.222;2024-02-16T07:15:48;7.65;;;5.25;;
23376;SDS011;14353;46.070;13.222;2024-02-16T07:18:15;7.50;;;4.88;;
23376;SDS011;14353;46.070;13.222;2024-02-16T07:20:41;10.95;;;4.72;;
23376;SDS011;14353;46.070;13.222;2024-02-16T07:23:07;6.05;;;4.95;;
23376;SDS011;14353;46.070;13.222;2024-02-16T07:25:35;6.40;;;4.68;;
23376;SDS011;14353;46.070;13.222;2024-02-16T07:28:01;8.25;;;5.15;;
23376;SDS011;14353;46.070;13.222;2024-02-16T07:30:27;6.95;;;5.05;;
23376;SDS011;14353;46.070;13.222;2024-02-16T07:32:53;9.02;;;4.90;;
23376;SDS011;14353;46.070;13.222;2024-02-16T07:35:18;8.52;;;4.68;;
23376;SDS011;14353;46.070;13.222;2024-02-16T07:37:44;6.53;;;4.82;;
23376;SDS011;14353;46.070;13.222;2024-02-16T07:40:10;5.90;;;4.70;;
23376;SDS011;14353;46.070;13.222;2024-02-16T07:42:39;7.38;;;4.75;;
23376;SDS011;14353;46.070;13.222;2024-02-16T07:45:05;8.70;;;4.70;;
23376;SDS011;14353;46.070;13.222;2024-02-16T07:47:32;11.30;;;5.60;;
23376;SDS011;14353;46.070;13.222;2024-02-16T07:49:57;7.35;;;4.75;;
23376;SDS011;14353;46.070;13.222;2024-02-16T07:52:23;13.32;;;5.35;;
23376;SDS011;14353;46.070;13.222;2024-02-16T07:54:49;10.15;;;4.63;;
23376;SDS011;14353;46.070;13.222;2024-02-16T07:57:16;6.85;;;4.60;;
23376;SDS011;14353;46.070;13.222;2024-02-16T07:59:42;11.18;;;5.07;;
23376;SDS011;14353;46.070;13.222;2024-02-16T08:02:08;8.63;;;4.88;;
23376;SDS011;14353;46.070;13.222;2024-02-16T08:04:35;10.57;;;5.03;;
23376;SDS011;14353;46.070;13.222;2024-02-16T08:07:01;8.82;;;4.68;;
23376;SDS011;14353;46.070;13.222;2024-02-16T08:09:27;6.50;;;4.50;;
23376;SDS011;14353;46.070;13.222;2024-02-16T08:11:53;7.78;;;4.63;;
23376;SDS011;14353;46.070;13.222;2024-02-16T08:14:18;10.48;;;4.72;;
23376;SDS011;14353;46.070;13.222;2024-02-16T08:16:44;12.85;;;5.20;;
23376;SDS011;14353;46.070;13.222;2024-02-16T08:19:11;11.90;;;5.03;;
23376;SDS011;14353;46.070;13.222;2024-02-16T08:21:39;8.93;;;4.65;;
23376;SDS011;14353;46.070;13.222;2024-02-16T08:24:05;11.63;;;5.18;;
23376;SDS011;14353;46.070;13.222;2024-02-16T08:26:32;8.02;;;4.70;;
23376;SDS011;14353;46.070;13.222;2024-02-16T08:28:58;12.57;;;5.03;;
23376;SDS011;14353;46.070;13.222;2024-02-16T08:31:24;11.70;;;4.82;;
23376;SDS011;14353;46.070;13.222;2024-02-16T08:33:50;15.82;;;4.75;;
23376;SDS011;14353;46.070;13.222;2024-02-16T08:36:16;9.40;;;4.60;;
23376;SDS011;14353;46.070;13.222;2024-02-16T08:38:42;10.13;;;5.05;;
23376;SDS011;14353;46.070;13.222;2024-02-16T08:41:07;9.60;;;5.45;;
23376;SDS011;14353;46.070;13.222;2024-02-16T08:43:33;9.18;;;4.68;;
23376;SDS011;14353;46.070;13.222;2024-02-16T08:45:59;9.65;;;4.65;;
23376;SDS011;14353;46.070;13.222;2024-02-16T08:48:25;8.43;;;4.63;;
23376;SDS011;14353;46.070;13.222;2024-02-16T08:50:50;7.90;;;4.45;;
23376;SDS011;14353;46.070;13.222;2024-02-16T08:53:16;8.73;;;4.20;;
23376;SDS011;14353;46.070;13.222;2024-02-16T08:55:42;12.43;;;5.00;;
23376;SDS011;14353;46.070;13.222;2024-02-16T08:58:08;8.63;;;4.20;;
23376;SDS011;14353;46.070;13.222;2024-02-16T09:00:34;10.27;;;4.05;;
23376;SDS011;14353;46.070;13.222;2024-02-16T09:03:00;10.73;;;4.35;;
23376;SDS011;14353;46.070;13.222;2024-02-16T09:05:27;8.98;;;4.78;;
23376;SDS011;14353;46.070;13.222;2024-02-16T09:07:53;10.27;;;5.03;;
23376;SDS011;14353;46.070;13.222;2024-02-16T09:10:19;10.68;;;5.00;;
23376;SDS011;14353;46.070;13.222;2024-02-16T09:12:45;10.65;;;5.20;;
23376;SDS011;14353;46.070;13.222;2024-02-16T09:15:11;11.32;;;4.95;;
23376;SDS011;14353;46.070;13.222;2024-02-16T09:17:37;11.80;;;4.75;;
23376;SDS011;14353;46.070;13.222;2024-02-16T09:20:05;12.45;;;4.63;;
23376;SDS011;14353;46.070;13.222;2024-02-16T09:22:33;12.73;;;5.00;;
23376;SDS011;14353;46.070;13.222;2024-02-16T09:24:58;11.45;;;4.90;;
23376;SDS011;14353;46.070;13.222;2024-02-16T09:27:25;9.30;;;4.90;;
23376;SDS011;14353;46.070;13.222;2024-02-16T09:29:51;11.75;;;5.03;;
23376;SDS011;14353;46.070;13.222;2024-02-16T09:32:17;11.55;;;5.00;;
23376;SDS011;14353;46.070;13.222;2024-02-16T09:34:43;11.00;;;5.22;;
23376;SDS011;14353;46.070;13.222;2024-02-16T09:37:08;7.55;;;4.47;;
23376;SDS011;14353;46.070;13.222;2024-02-16T09:39:34;16.55;;;5.28;;
23376;SDS011;14353;46.070;13.222;2024-02-16T09:42:00;9.75;;;4.88;;
23376;SDS011;14353;46.070;13.222;2024-02-16T09:44:26;13.48;;;5.35;;
23376;SDS011;14353;46.070;13.222;2024-02-16T09:46:53;8.55;;;4.55;;
23376;SDS011;14353;46.070;13.222;2024-02-16T09:49:19;11.57;;;5.07;;
23376;SDS011;14353;46.070;13.222;2024-02-16T09:51:45;8.52;;;5.13;;
23376;SDS011;14353;46.070;13.222;2024-02-16T09:54:11;17.08;;;5.03;;
23376;SDS011;14353;46.070;13.222;2024-02-16T09:56:37;10.93;;;4.40;;
23376;SDS011;14353;46.070;13.222;2024-02-16T09:59:02;9.90;;;4.95;;
23376;SDS011;14353;46.070;13.222;2024-02-16T10:01:28;14.85;;;5.38;;
23376;SDS011;14353;46.070;13.222;2024-02-16T10:04:16;13.93;;;4.93;;
23376;SDS011;14353;46.070;13.222;2024-02-16T10:06:47;14.68;;;5.47;;
23376;SDS011;14353;46.070;13.222;2024-02-16T10:09:22;14.02;;;5.00;;
23376;SDS011;14353;46.070;13.222;2024-02-16T10:11:49;16.20;;;5.82;;
23376;SDS011;14353;46.070;13.222;2024-02-16T10:14:14;20.00;;;5.90;;
23376;SDS011;14353;46.070;13.222;2024-02-16T10:16:40;14.15;;;4.80;;
23376;SDS011;14353;46.070;13.222;2024-02-16T10:19:07;16.45;;;4.90;;
23376;SDS011;14353;46.070;13.222;2024-02-16T10:21:36;13.45;;;4.88;;
23376;SDS011;14353;46.070;13.222;2024-02-16T10:24:04;18.02;;;5.22;;
23376;SDS011;14353;46.070;13.222;2024-02-16T10:26:33;14.30;;;4.85;;
23376;SDS011;14353;46.070;13.222;2024-02-16T10:29:11;15.82;;;4.90;;
23376;SDS011;14353;46.070;13.222;2024-02-16T10:31:38;24.08;;;5.00;;
23376;SDS011;14353;46.070;13.222;2024-02-16T10:34:05;20.08;;;5.13;;
23376;SDS011;14353;46.070;13.222;2024-02-16T10:36:38;14.02;;;4.65;;
23376;SDS011;14353;46.070;13.222;2024-02-16T10:39:05;17.80;;;4.78;;
23376;SDS011;14353;46.070;13.222;2024-02-16T10:41:34;14.18;;;5.03;;
23376;SDS011;14353;46.070;13.222;2024-02-16T10:44:02;16.38;;;4.38;;
23376;SDS011;14353;46.070;13.222;2024-02-16T10:46:32;24.13;;;4.57;;
23376;SDS011;14353;46.070;13.222;2024-02-16T10:48:58;21.50;;;5.22;;
23376;SDS011;14353;46.070;13.222;2024-02-16T10:51:46;32.20;;;5.40;;
23376;SDS011;14353;46.070;13.222;2024-02-16T10:54:14;26.13;;;5.15;;
23376;SDS011;14353;46.070;13.222;2024-02-16T10:56:43;18.60;;;5.10;;
23376;SDS011;14353;46.070;13.222;2024-02-16T10:59:11;20.25;;;5.97;;
23376;SDS011;14353;46.070;13.222;2024-02-16T11:01:40;20.02;;;5.40;;
23376;SDS011;14353;46.070;13.222;2024-02-16T11:04:07;18.50;;;5.75;;
23376;SDS011;14353;46.070;13.222;2024-02-16T11:06:49;21.17;;;5.45;;
23376;SDS011;14353;46.070;13.222;2024-02-16T11:09:27;16.10;;;5.80;;
23376;SDS011;14353;46.070;13.222;2024-02-16T11:12:00;15.43;;;5.57;;
23376;SDS011;14353;46.070;13.222;2024-02-16T11:14:41;14.60;;;5.60;;
23376;SDS011;14353;46.070;13.222;2024-02-16T11:17:11;13.02;;;4.78;;
23376;SDS011;14353;46.070;13.222;2024-02-16T11:19:44;13.85;;;5.85;;
23376;SDS011;14353;46.070;13.222;2024-02-16T11:22:14;14.07;;;5.88;;
23376;SDS011;14353;46.070;13.222;2024-02-16T11:24:43;11.55;;;5.78;;
23376;SDS011;14353;46.070;13.222;2024-02-16T11:27:13;11.63;;;5.13;;
23376;SDS011;14353;46.070;13.222;2024-02-16T11:29:49;11.57;;;5.50;;
23376;SDS011;14353;46.070;13.222;2024-02-16T11:32:14;13.48;;;5.68;;
23376;SDS011;14353;46.070;13.222;2024-02-16T11:34:43;19.10;;;5.28;;
23376;SDS011;14353;46.070;13.222;2024-02-16T11:37:09;11.68;;;4.90;;
23376;SDS011;14353;46.070;13.222;2024-02-16T11:39:37;9.57;;;4.70;;
23376;SDS011;14353;46.070;13.222;2024-02-16T11:42:06;11.05;;;4.95;;
23376;SDS011;14353;46.070;13.222;2024-02-16T11:44:35;8.23;;;5.18;;
23376;SDS011;14353;46.070;13.222;2024-02-16T11:47:05;15.98;;;5.50;;
23376;SDS011;14353;46.070;13.222;2024-02-16T11:49:37;13.95;;;5.13;;
23376;SDS011;14353;46.070;13.222;2024-02-16T11:52:04;14.40;;;5.05;;
23376;SDS011;14353;46.070;13.222;2024-02-16T11:54:30;10.60;;;4.80;;
23376;SDS011;14353;46.070;13.222;2024-02-16T11:56:57;11.65;;;4.50;;
23376;SDS011;14353;46.070;13.222;2024-02-16T11:59:23;10.05;;;4.55;;
23376;SDS011;14353;46.070;13.222;2024-02-16T12:01:49;10.50;;;4.75;;
23376;SDS011;14353;46.070;13.222;2024-02-16T12:04:21;15.38;;;4.85;;
23376;SDS011;14353;46.070;13.222;2024-02-16T12:06:47;12.07;;;4.72;;
23376;SDS011;14353;46.070;13.222;2024-02-16T12:09:16;12.07;;;4.22;;
23376;SDS011;14353;46.070;13.222;2024-02-16T12:11:42;14.10;;;4.65;;
23376;SDS011;14353;46.070;13.222;2024-02-16T12:14:07;13.80;;;5.32;;
23376;SDS011;14353;46.070;13.222;2024-02-16T12:16:33;11.15;;;4.47;;
23376;SDS011;14353;46.070;13.222;2024-02-16T12:19:03;8.88;;;4.32;;
23376;SDS011;14353;46.070;13.222;2024-02-16T12:23:57;14.00;;;4.50;;
23376;SDS011;14353;46.070;13.222;2024-02-16T12:26:23;11.07;;;5.13;;
23376;SDS011;14353;46.070;13.222;2024-02-16T12:28:49;11.48;;;5.00;;
23376;SDS011;14353;46.070;13.222;2024-02-16T12:31:19;10.13;;;4.55;;
23376;SDS011;14353;46.070;13.222;2024-02-16T12:33:48;8.88;;;4.50;;
23376;SDS011;14353;46.070;13.222;2024-02-16T12:36:14;9.07;;;5.50;;
23376;SDS011;14353;46.070;13.222;2024-02-16T12:38:42;11.63;;;4.95;;
23376;SDS011;14353;46.070;13.222;2024-02-16T12:41:07;10.35;;;4.72;;
23376;SDS011;14353;46.070;13.222;2024-02-16T12:43:34;8.50;;;4.80;;
23376;SDS011;14353;46.070;13.222;2024-02-16T12:45:59;11.63;;;4.93;;
23376;SDS011;14353;46.070;13.222;2024-02-16T12:48:27;7.65;;;4.40;;
23376;SDS011;14353;46.070;13.222;2024-02-16T12:50:53;10.50;;;4.55;;
23376;SDS011;14353;46.070;13.222;2024-02-16T12:53:19;11.05;;;3.97;;
23376;SDS011;14353;46.070;13.222;2024-02-16T12:55:46;11.18;;;4.13;;
23376;SDS011;14353;46.070;13.222;2024-02-16T12:58:12;12.20;;;5.05;;
23376;SDS011;14353;46.070;13.222;2024-02-16T13:00:39;8.45;;;4.82;;
23376;SDS011;14353;46.070;13.222;2024-02-16T13:03:04;11.57;;;5.20;;
23376;SDS011;14353;46.070;13.222;2024-02-16T13:05:30;9.45;;;6.13;;
23376;SDS011;14353;46.070;13.222;2024-02-16T13:07:58;15.15;;;5.60;;
23376;SDS011;14353;46.070;13.222;2024-02-16T13:10:23;11.70;;;5.78;;
23376;SDS011;14353;46.070;13.222;2024-02-16T13:12:49;9.13;;;5.45;;
23376;SDS011;14353;46.070;13.222;2024-02-16T13:15:15;13.13;;;5.40;;
23376;SDS011;14353;46.070;13.222;2024-02-16T13:17:41;11.95;;;5.60;;
23376;SDS011;14353;46.070;13.222;2024-02-16T13:20:07;13.13;;;5.30;;
23376;SDS011;14353;46.070;13.222;2024-02-16T13:22:37;11.73;;;5.53;;
23376;SDS011;14353;46.070;13.222;2024-02-16T13:25:03;11.43;;;5.05;;
23376;SDS011;14353;46.070;13.222;2024-02-16T13:27:30;9.73;;;5.28;;
23376;SDS011;14353;46.070;13.222;2024-02-16T13:29:57;11.73;;;5.50;;
23376;SDS011;14353;46.070;13.222;2024-02-16T13:32:23;14.70;;;5.13;;
23376;SDS011;14353;46.070;13.222;2024-02-16T13:34:49;7.95;;;5.38;;
23376;SDS011;14353;46.070;13.222;2024-02-16T13:37:15;10.90;;;5.38;;
23376;SDS011;14353;46.070;13.222;2024-02-16T13:39:40;8.98;;;5.03;;
23376;SDS011;14353;46.070;13.222;2024-02-16T13:42:06;9.02;;;4.72;;
23376;SDS011;14353;46.070;13.222;2024-02-16T13:44:32;7.57;;;5.00;;
23376;SDS011;14353;46.070;13.222;2024-02-16T13:46:58;7.18;;;4.95;;
23376;SDS011;14353;46.070;13.222;2024-02-16T13:49:23;9.80;;;5.18;;
23376;SDS011;14353;46.070;13.222;2024-02-16T13:51:49;9.63;;;5.85;;
23376;SDS011;14353;46.070;13.222;2024-02-16T13:54:15;13.98;;;5.80;;
23376;SDS011;14353;46.070;13.222;2024-02-16T13:56:42;12.80;;;4.95;;
23376;SDS011;14353;46.070;13.222;2024-02-16T13:59:08;13.63;;;5.13;;
23376;SDS011;14353;46.070;13.222;2024-02-16T14:01:34;9.63;;;4.80;;
23376;SDS011;14353;46.070;13.222;2024-02-16T14:04:02;8.13;;;4.53;;
23376;SDS011;14353;46.070;13.222;2024-02-16T14:06:28;8.82;;;4.95;;
23376;SDS011;14353;46.070;13.222;2024-02-16T14:08:56;10.38;;;5.20;;
23376;SDS011;14353;46.070;13.222;2024-02-16T14:11:22;8.80;;;4.50;;
23376;SDS011;14353;46.070;13.222;2024-02-16T14:13:48;8.10;;;4.20;;
23376;SDS011;14353;46.070;13.222;2024-02-16T14:16:14;8.88;;;4.65;;
23376;SDS011;14353;46.070;13.222;2024-02-16T14:18:40;6.32;;;4.35;;
23376;SDS011;14353;46.070;13.222;2024-02-16T14:21:05;6.53;;;4.03;;
23376;SDS011;14353;46.070;13.222;2024-02-16T14:23:32;9.50;;;4.20;;